Main page
METAR-TAF:

METAR-TAF

Airports :

Abidjan, Ivory coast

Port Bouet Airport

latitude: 05-15N, longitude: 003-56W, elevation: 7 m

Current weather observation

The report was made 29 minutes ago, at 11:30 UTC
Wind 7 kt from the South/Southwest, varying between South and West/Southwest
Temperature 29°C
Humidity 74%
Pressure 1013 hPa
Visibility: 9000 m
Scattered clouds at a height of 1200 ft
Scattered clouds at a height of 4000 ft

METAR: DIAP 261130Z 21007KT 190V250 9000 SCT012 SCT040 29/24 Q1013 NOSIG

Time: 11:59 (11:59 UTC)


TAF: missing

Weather observations and forecasts of more than 4000 airports (METAR and TAF reports).

The available stations are represented by yellow and red dots on the map.

Hover mouse over dot to see the name of the station.

Then click to see weather observations and forecasts.

To change the map : click on the green buttons with a black cross to zoom in, on the green button with a dash to zoom out, or on the green arrows for adjacent maps.


METAR-TAF: